Flight Track Log - Related Links

Times and Time Zones

All times are in EDT time to prevent confusion due to time zone crossing. See the QLK107D flight status page for this flight to view local times or setup timezone preferences in your user account.

Time Position Orientation Groundspeed Altitude Reporting Facility
EDT Latitude Longitude Course Direction KTS MPH feet Rate Location/Type
Fri 08:24:07 PM -30.3122 153.1172 213° Southwest 22,000  Level Aus ATC (Calculated)
Fri 08:25:00 PM -30.3595 153.0791 213° Southwest 22,000 -3,816 Level Aus ATC (Calculated)
Fri 08:25:46 PM -30.4069 153.0410 212° Southwest 22,000 -5,137 Level Aus ATC (Calculated)
Fri 08:26:02 PM -30.4542 153.0028 210° Southwest 22,000 -7,346 Level Aus ATC (Calculated)
Fri 08:26:44 PM -30.5015 152.9646 137° Southeast 22,000 -8,637 Level Aus ATC (Calculated)
Fri 08:27:33 PM -30.5054 152.9688 215° Southwest 217 250 8,900 -8,500 Descending Aus ATC (RADAR)
Fri 08:28:08 PM -30.5355 152.9442 215° Southwest 224 258 10,100 2,100 Climbing Aus ATC (RADAR)
Fri 08:28:53 PM -30.5788 152.9132 212° Southwest 242 278 11,700 2,000 Climbing Aus ATC (RADAR)
Fri 08:29:23 PM -30.6052 152.8910 216° Southwest 238 274 12,600 1,781 Climbing Aus ATC (RADAR)
Fri 08:29:57 PM -30.6367 152.8644 216° Southwest 240 276 13,600 1,786 Climbing Aus ATC (RADAR)
Fri 08:30:47 PM -30.6848 152.8260 214° Southwest 251 289 15,100 1,745 Climbing Aus ATC (RADAR)
Fri 08:31:47 PM -30.7386 152.7790 217° Southwest 242 278 16,800 1,543 Climbing Aus ATC (RADAR)
Fri 08:32:32 PM -30.7808 152.7457 214° Southwest 244 281 17,800 1,275 Climbing Aus ATC (RADAR)
Fri 08:33:07 PM -30.8128 152.7190 216° Southwest 244 281 18,500 1,200 Climbing Aus ATC (RADAR)
Fri 08:33:52 PM -30.8549 152.6857 214° Southwest 245 282 19,400 635 Climbing Aus ATC (RADAR)
Fri 08:34:32 PM -30.8926 152.6530 217° Southwest 257 296 19,400 -320 Level Aus ATC (RADAR)
Fri 08:35:07 PM -30.9306 152.6224 215° Southwest 280 322 19,000 -600 Descending Aus ATC (RADAR)
Fri 08:35:42 PM -30.9710 152.5893 215° Southwest 300 345 18,700 -554 Descending Aus ATC (RADAR)
Fri 08:36:12 PM -31.0070 152.5597 215° Southwest 313 360 18,400 -462 Descending Aus ATC (RADAR)
Fri 08:36:47 PM -31.0501 152.5246 215° Southwest 323 372 18,200 -150 Descending Aus ATC (RADAR)
Fri 08:37:32 PM -31.1050 152.4787 216° Southwest 324 373 18,200  Level Aus ATC (RADAR)
Fri 08:38:07 PM -31.1473 152.4435 215° Southwest 322 371 18,200  Level Aus ATC (RADAR)
Fri 08:38:47 PM -31.1960 152.4036 215° Southwest 321 369 18,200  Level Aus ATC (RADAR)
Fri 08:39:26 PM -31.2438 152.3639 215° Southwest 319 367 18,200  Level Aus ATC (RADAR)
Fri 08:40:26 PM -31.3153 152.3035 216° Southwest 317 365 18,200  Level Aus ATC (RADAR)
Fri 08:41:26 PM -31.3872 152.2440 215° Southwest 315 362 18,200  Level Aus ATC (RADAR)
Fri 08:42:11 PM -31.4411 152.1990 215° Southwest 319 367 18,200  Level Aus ATC (RADAR)
Fri 08:42:46 PM -31.4826 152.1636 216° Southwest 318 366 18,200  Level Aus ATC (RADAR)
Fri 08:43:21 PM -31.5254 152.1280 215° Southwest 324 373 18,200  Level Aus ATC (RADAR)
Fri 08:43:51 PM -31.5620 152.0976 215° Southwest 324 373 18,200 80 Level Aus ATC (RADAR)
Fri 08:44:36 PM -31.6149 152.0532 216° Southwest 316 364 18,300  Climbing Aus ATC (RADAR)
Fri 08:45:21 PM -31.6715 152.0056 216° Southwest 325 374 18,200  Descending Aus ATC (RADAR)
Fri 08:46:16 PM -31.7374 151.9500 216° Southwest 322 371 18,300 60 Climbing Aus ATC (RADAR)
Fri 08:47:01 PM -31.7929 151.9036 215° Southwest 321 369 18,300  Level Aus ATC (RADAR)
Fri 08:47:36 PM -31.8360 151.8671 216° Southwest 322 371 18,300  Level Aus ATC (RADAR)
Fri 08:48:26 PM -31.8976 151.8148 216° Southwest 322 371 18,300 -60 Level Aus ATC (RADAR)
Fri 08:49:16 PM -31.9598 151.7625 216° Southwest 325 374 18,200 -55 Descending Aus ATC (RADAR)
Fri 08:50:16 PM -32.0344 151.6998 215° Southwest 325 374 18,200  Level Aus ATC (RADAR)
Fri 08:51:20 PM -32.1146 151.6315 216° Southwest 323 372 18,200  Level Aus ATC (RADAR)
Fri 08:52:05 PM -32.1708 151.5840 216° Southwest 327 376 18,200  Level Aus ATC (RADAR)
Fri 08:52:40 PM -32.2144 151.5467 216° Southwest 329 379 18,200  Level Aus ATC (RADAR)
Fri 08:53:16 PM -32.2570 151.5105 216° Southwest 319 367 18,200  Level Aus ATC (RADAR)
Fri 08:54:20 PM -32.3313 151.4471 216° Southwest 295 339 18,200  Level Aus ATC (RADAR)
Fri 08:54:55 PM -32.3684 151.4158 215° Southwest 277 319 18,200  Level Aus ATC (RADAR)
Fri 08:55:30 PM -32.4024 151.3864 216° Southwest 258 297 18,200  Level Aus ATC (RADAR)
Fri 08:56:05 PM -32.4366 151.3565 216° Southwest 254 292 18,200  Level Aus ATC (RADAR)
Fri 08:56:35 PM -32.4636 151.3332 216° Southwest 248 285 18,200  Level Aus ATC (RADAR)
Fri 08:57:14 PM -32.5028 151.3004 215° Southwest 251 289 18,200  Level Aus ATC (RADAR)
Fri 08:58:15 PM -32.5601 151.2544 214° Southwest 254 292 18,200  Level Aus ATC (RADAR)
Fri 08:58:45 PM -32.5986 151.2509 184° South 267 307 18,200  Level Aus ATC (RADAR)
Fri 08:59:20 PM -32.6447 151.2508 180° South 280 322 18,200  Level Aus ATC (RADAR)
Fri 09:00:06 PM -32.7034 151.2489 182° South 282 325 18,200  Level Aus ATC (RADAR)
Fri 09:01:05 PM -32.7820 151.2453 182° South 283 326 18,200  Level Aus ATC (RADAR)
Fri 09:01:49 PM -32.8413 151.2417 183° South 285 328 18,200  Level Aus ATC (RADAR)
Fri 09:02:24 PM -32.8873 151.2392 183° South 284 327 18,200  Level Aus ATC (RADAR)
Fri 09:03:10 PM -32.9465 151.2363 182° South 284 327 18,200 -57 Level Aus ATC (RADAR)
Fri 09:04:09 PM -33.0251 151.2316 183° South 284 327 18,100 -908 Descending Aus ATC (RADAR)
Fri 09:05:09 PM -33.1118 151.2271 182° South 302 348 16,400 -1,569 Descending Aus ATC (RADAR)
Fri 09:06:19 PM -33.2076 151.2220 183° South 300 345 14,700 -1,523 Descending Aus ATC (RADAR)
Fri 09:07:19 PM -33.2882 151.2173 183° South 290 334 13,100 -1,527 Descending Aus ATC (RADAR)
Fri 09:08:09 PM -33.3536 151.2141 182° South 285 328 11,900 -1,500 Descending Aus ATC (RADAR)
Fri 09:08:43 PM -33.3987 151.2112 183° South 272 313 11,000 -1,519 Descending Aus ATC (RADAR)
Fri 09:09:28 PM -33.4564 151.2078 183° South 272 313 9,900 -1,429 Descending Aus ATC (RADAR)
Fri 09:10:28 PM -33.5313 151.2040 182° South 271 312 8,500 -1,364 Descending Aus ATC (RADAR)
Fri 09:11:18 PM -33.5937 151.2009 182° South 265 305 7,400 -1,271 Descending Aus ATC (RADAR)
Fri 09:11:53 PM -33.6352 151.1986 183° South 257 296 6,700 -1,040 Descending Aus ATC (RADAR)
Fri 09:12:33 PM -33.6822 151.1961 183° South 254 292 6,100 -420 Descending Aus ATC (RADAR)
Fri 09:13:33 PM -33.7495 151.2061 173° South 247 284 6,000 -57 Descending Aus ATC (RADAR)
Fri 09:14:18 PM -33.7978 151.2283 159° South 248 285 6,000  Level Aus ATC (RADAR)
Fri 09:14:52 PM -33.8361 151.2444 161° South 249 287 6,000  Level Aus ATC (RADAR)
Fri 09:16:17 PM -33.9280 151.2867 159° South 250 288 6,000  Level Aus ATC (RADAR)
Fri 09:17:07 PM -33.9828 151.3122 159° South 253 291 6,000 -316 Level Aus ATC (RADAR)
Fri 09:17:52 PM -34.0326 151.3344 160° South 253 291 5,500 -1,143 Descending Aus ATC (RADAR)
Fri 09:18:52 PM -34.0964 151.3346 180° South 227 261 4,000 -1,560 Descending Aus ATC (RADAR)
Fri 09:19:32 PM -34.1203 151.3023 228° Southwest 196 226 2,900 -1,200 Descending Aus ATC (RADAR)
Fri 09:20:22 PM -34.1232 151.2489 266° West 209 241 2,200 -659 Descending Aus ATC (RADAR)
Fri 09:21:03 PM -34.0899 151.2251 329° Northwest 213 245 1,900 -400 Descending Aus ATC (RADAR)
Fri 09:21:52 PM -34.0444 151.2134 348° North 187 215 1,600 -606 Descending Aus ATC (RADAR)
Fri 09:22:42 PM -34.0124 151.2046 347° North 133 153 900 -776 Descending Aus ATC (RADAR)
Fri 09:23:17 PM -33.9929 151.1996 348° North 122 140 500 -640 Descending Aus ATC (RADAR)
Fri 09:23:57 PM -33.9719 151.1941 348° North 118 136 100 -600 Descending Aus ATC (RADAR)

Login

Don't have an account? Register now (free) for customized features, flight alerts, and more!